This is the latest recevied weather packets stored in our database for station/object K5BOU. If no packets are shown the sender has not sent any weather packets the latest 10 day(s).
| Time | Temp. | Humidity | Pressure | Rain* | Wind** | Luminosity | Snow |
|---|---|---|---|---|---|---|---|
| 1788285964 | 32.78° C | 70% | 1013.2 hPa | 0 mm | - | 403 W/m² | - |
| 1788285658 | 33.33° C | 72% | 1013.1 hPa | 0 mm | - | 439 W/m² | - |
| 1788285352 | 32.78° C | 72% | 1013.5 hPa | 0 mm | - | 457 W/m² | - |
| 1788285052 | 32.78° C | 73% | 1013.3 hPa | 0 mm | - | 878 W/m² | - |
| 1788284748 | 32.78° C | 73% | 1013.5 hPa | 0 mm | - | 537 W/m² | - |
| 1788284444 | 32.22° C | 75% | 1013.7 hPa | 0 mm | - | 744 W/m² | - |
| 1788284138 | 32.78° C | 74% | 1014 hPa | 0 mm | - | 814 W/m² | - |
| 1788283834 | 32.22° C | 76% | 1014 hPa | 0 mm | - | 907 W/m² | - |
| 1788283530 | 31.67° C | 78% | 1014.1 hPa | 0 mm | - | 558 W/m² | - |
| 1788283228 | 31.11° C | 82% | 1014.2 hPa | 0 mm | - | 346 W/m² | - |
| 1788282927 | 30.56° C | 83% | 1014.3 hPa | 0 mm | - | 221 W/m² | - |
| 1788282626 | 30.56° C | 83% | 1014.2 hPa | 0 mm | - | 140 W/m² | - |
| 1788282326 | 30.56° C | 83% | 1014.3 hPa | 0 mm | - | 176 W/m² | - |
| 1788282021 | 30.56° C | 83% | 1014.3 hPa | 0 mm | - | 213 W/m² | - |
| 1788281722 | 30.56° C | 84% | 1014.4 hPa | 0 mm | - | 223 W/m² | - |
| 1788281411 | 30.56° C | 84% | 1014.5 hPa | 0 mm | - | 226 W/m² | - |
| 1788281106 | 30° C | 84% | 1014.6 hPa | 0 mm | - | 240 W/m² | - |
| 1788280801 | 30.56° C | 82% | 1014.6 hPa | 0 mm | - | 242 W/m² | - |
| 1788280496 | 30.56° C | 83% | 1014.6 hPa | 0 mm | - | 226 W/m² | - |
| 1788280194 | 30.56° C | 83% | 1014.4 hPa | 0 mm | - | 221 W/m² | - |
| 1788279890 | 30.56° C | 83% | 1014.4 hPa | 0 mm | - | 220 W/m² | - |
| 1788279589 | 30.56° C | 84% | 1014.4 hPa | 0 mm | - | 230 W/m² | - |
| 1788279288 | 30.56° C | 85% | 1014.6 hPa | 0 mm | - | 246 W/m² | - |
| 1788278984 | 30.56° C | 84% | 1014.8 hPa | 0 mm | - | 268 W/m² | - |
| 1788278680 | 30.56° C | 85% | 1014.6 hPa | 0 mm | - | 293 W/m² | - |
* Rain latest hour (hover to see other rain measurements)
** Current wind speed in m/s (hover to see current wind gust speed)